Time;durP1;ratioP1;P1;durP2;ratioP2;P2;SDS_P1;SDS_P2;PMS_P1;PMS_P2;Temp;Humidity;BMP_temperature;BMP_pressure;BME280_temperature;BME280_humidity;BME280_pressure;Samples;Min_cycle;Max_cycle;Signal;HPM_P1;HPM_P2
2022/11/24 00:03:23;;;;;;;4.63;1.10;;;16.00;69.00;;;;;;10453565;28;20017;-54
2022/11/24 00:08:23;;;;;;;4.28;1.25;;;16.00;69.10;;;;;;10452824;28;20044;-54
2022/11/24 00:13:24;;;;;;;2.58;0.95;;;15.90;69.20;;;;;;10453209;28;20017;-56
2022/11/24 00:18:26;;;;;;;2.15;0.90;;;15.90;69.40;;;;;;10451402;28;20023;-56
2022/11/24 00:23:26;;;;;;;2.67;0.85;;;15.90;69.20;;;;;;10451601;28;20048;-55
2022/11/24 00:28:27;;;;;;;2.55;1.10;;;16.00;68.90;;;;;;10452184;28;20669;-56
2022/11/24 00:33:28;;;;;;;2.40;1.00;;;16.00;68.90;;;;;;10452221;28;20384;-56
2022/11/24 00:38:29;;;;;;;3.38;0.93;;;15.90;69.00;;;;;;10451944;28;20032;-56
2022/11/24 00:43:29;;;;;;;1.80;0.65;;;15.90;69.10;;;;;;10450697;28;20017;-55
2022/11/24 00:48:30;;;;;;;2.42;0.80;;;16.00;68.90;;;;;;10433623;28;20021;-54
2022/11/24 00:53:31;;;;;;;3.63;0.90;;;16.00;68.80;;;;;;10448967;28;20025;-56
2022/11/24 00:58:32;;;;;;;1.50;0.80;;;16.00;68.90;;;;;;10432619;28;20025;-56
2022/11/24 01:03:33;;;;;;;1.92;0.70;;;15.90;69.00;;;;;;10451355;28;20710;-55
2022/11/24 01:08:36;;;;;;;2.35;0.88;;;16.00;68.90;;;;;;10449128;28;20037;-54
2022/11/24 01:13:38;;;;;;;2.55;1.08;;;16.00;68.70;;;;;;10450731;28;20029;-55
2022/11/24 01:18:38;;;;;;;2.15;1.05;;;16.00;68.80;;;;;;10450331;28;20056;-56
2022/11/24 01:23:39;;;;;;;1.45;0.65;;;15.90;68.80;;;;;;10449189;28;20629;-56
2022/11/24 01:28:41;;;;;;;1.70;0.77;;;16.00;68.90;;;;;;10449884;28;20691;-55
2022/11/24 01:33:41;;;;;;;2.60;1.05;;;16.00;68.70;;;;;;10448685;28;20878;-55
2022/11/24 01:38:42;;;;;;;2.45;0.93;;;16.00;68.60;;;;;;10450083;28;20028;-55
2022/11/24 01:43:44;;;;;;;2.85;1.15;;;16.00;68.80;;;;;;10449527;28;20020;-55
2022/11/24 01:49:07;;;;;;;3.42;0.95;;;15.90;68.80;;;;;;10448144;28;20146;-56
2022/11/24 01:54:11;;;;;;;1.50;0.80;;;16.00;68.50;;;;;;10427632;28;20041;-56
2022/11/24 01:59:14;;;;;;;1.65;0.80;;;16.10;68.40;;;;;;10447894;28;20063;-56
2022/11/24 02:04:22;;;;;;;1.02;0.73;;;16.10;68.40;;;;;;10446881;28;20017;-56
2022/11/24 02:09:38;;;;;;;2.65;0.90;;;16.00;68.50;;;;;;10448503;28;20063;-56
2022/11/24 02:14:40;;;;;;;2.45;1.05;;;16.00;68.70;;;;;;10448223;28;20025;-55
2022/11/24 02:19:59;;;;;;;4.22;0.88;;;15.90;68.90;;;;;;10446799;28;20086;-56
2022/11/24 02:25:22;;;;;;;3.15;0.60;;;15.90;68.80;;;;;;10433498;28;20028;-56
2022/11/24 02:30:23;;;;;;;2.60;0.70;;;16.00;68.60;;;;;;10447416;28;20703;-54
2022/11/24 02:35:26;;;;;;;2.50;1.10;;;16.00;68.50;;;;;;10425468;28;20041;-56
2022/11/24 02:40:29;;;;;;;1.70;0.82;;;15.90;68.60;;;;;;10446285;28;20102;-60
2022/11/24 02:45:30;;;;;;;1.52;0.68;;;15.90;68.90;;;;;;10445934;28;20032;-55
2022/11/24 02:50:31;;;;;;;2.58;1.10;;;15.80;68.90;;;;;;10446620;28;20098;-54
2022/11/24 02:55:32;;;;;;;1.75;0.70;;;15.90;68.70;;;;;;10445419;28;20117;-56
2022/11/24 03:00:32;;;;;;;1.25;0.68;;;16.00;69.10;;;;;;10446655;28;20017;-55
2022/11/24 03:05:33;;;;;;;4.40;1.33;;;15.90;68.50;;;;;;10446476;28;20029;-53
2022/11/24 03:10:34;;;;;;;2.78;0.80;;;15.90;68.80;;;;;;10445152;28;20059;-56
2022/11/24 03:15:35;;;;;;;1.98;0.60;;;15.80;68.80;;;;;;10445850;28;20023;-55
2022/11/24 03:20:35;;;;;;;2.22;0.80;;;15.80;68.80;;;;;;10445953;28;20071;-54
2022/11/24 03:25:36;;;;;;;2.35;1.02;;;16.00;68.50;;;;;;10446286;28;20104;-56
2022/11/24 03:30:37;;;;;;;1.67;0.90;;;16.00;68.30;;;;;;10446307;28;20029;-56
2022/11/24 03:35:38;;;;;;;2.50;0.82;;;16.00;68.20;;;;;;10444213;28;20107;-56
2022/11/24 03:40:38;;;;;;;3.17;0.73;;;16.10;68.00;;;;;;10446128;28;20103;-56
2022/11/24 03:45:39;;;;;;;2.30;0.80;;;16.10;67.90;;;;;;10444466;28;20087;-56
2022/11/24 03:50:40;;;;;;;1.35;0.60;;;16.00;68.00;;;;;;10446293;28;20025;-56
2022/11/24 03:55:42;;;;;;;2.45;0.75;;;16.00;68.10;;;;;;10443812;28;20029;-54
2022/11/24 04:00:43;;;;;;;2.35;1.25;;;16.00;68.20;;;;;;10445639;28;20099;-54
2022/11/24 04:05:44;;;;;;;2.33;0.63;;;16.10;68.00;;;;;;10444166;28;20069;-56
2022/11/24 04:10:50;;;;;;;1.23;0.50;;;16.10;67.80;;;;;;10445577;28;20590;-54
2022/11/24 04:15:51;;;;;;;3.15;0.80;;;16.10;67.80;;;;;;10445027;28;20163;-55
2022/11/24 04:20:52;;;;;;;2.03;0.85;;;16.10;68.00;;;;;;10445492;28;20025;-56
2022/11/24 04:25:52;;;;;;;3.28;0.75;;;16.00;68.10;;;;;;10446102;28;20472;-53
2022/11/24 04:30:53;;;;;;;2.40;0.70;;;16.00;68.40;;;;;;10450911;28;20033;-55
2022/11/24 04:35:54;;;;;;;1.20;0.60;;;15.90;68.50;;;;;;10451956;28;20504;-55
2022/11/24 04:40:54;;;;;;;1.55;0.50;;;15.90;68.80;;;;;;10450814;28;20064;-56
2022/11/24 04:45:58;;;;;;;2.47;0.68;;;15.80;68.80;;;;;;10450344;28;20035;-55
2022/11/24 04:51:03;;;;;;;3.28;0.95;;;15.80;69.00;;;;;;10450050;28;20087;-55
2022/11/24 04:56:05;;;;;;;3.30;0.80;;;15.90;68.60;;;;;;10450827;28;20021;-56
2022/11/24 05:01:07;;;;;;;2.47;1.15;;;16.00;68.30;;;;;;10449852;28;20032;-56
2022/11/24 05:06:08;;;;;;;2.00;0.80;;;16.00;68.20;;;;;;10433361;28;20024;-55
2022/11/24 05:11:08;;;;;;;2.42;1.10;;;16.00;67.90;;;;;;10449395;28;20033;-55
2022/11/24 05:16:09;;;;;;;3.25;0.77;;;16.10;67.80;;;;;;10449201;28;20009;-55
2022/11/24 05:21:10;;;;;;;2.25;1.00;;;16.00;67.70;;;;;;10450295;28;20049;-56
2022/11/24 05:26:10;;;;;;;1.73;0.63;;;16.00;67.90;;;;;;10448923;28;20025;-53
2022/11/24 05:31:11;;;;;;;2.58;1.10;;;16.00;68.10;;;;;;10449857;28;20037;-55
2022/11/24 05:36:51;;;;;;;2.35;0.70;;;15.90;68.30;;;;;;10449785;28;20466;-56
2022/11/24 05:41:32;;;;;;;2.83;0.80;;;15.90;68.50;;;;;;10446872;28;20048;-53
2022/11/24 05:46:33;;;;;;;2.80;1.08;;;16.00;68.10;;;;;;10448502;28;20100;-56
2022/11/24 05:51:33;;;;;;;2.00;0.80;;;16.00;68.00;;;;;;10449545;28;20120;-55
2022/11/24 05:56:34;;;;;;;1.90;0.70;;;16.00;68.10;;;;;;10430227;28;20072;-57
2022/11/24 06:01:35;;;;;;;4.80;0.88;;;15.90;68.20;;;;;;10446760;28;20079;-55
2022/11/24 06:06:35;;;;;;;6.30;1.33;;;15.90;69.30;;;;;;10448562;28;20053;-55
2022/11/24 06:11:36;;;;;;;2.53;0.90;;;16.10;69.40;;;;;;10447314;28;20068;-55
2022/11/24 06:16:37;;;;;;;6.22;1.15;;;16.30;69.30;;;;;;10448089;28;20414;-57
2022/11/24 06:21:38;;;;;;;5.18;1.23;;;16.30;70.30;;;;;;10435541;28;20031;-54
2022/11/24 06:26:38;;;;;;;4.35;1.00;;;16.40;70.40;;;;;;10447722;28;20405;-58
2022/11/24 06:31:39;;;;;;;15.15;2.30;;;16.30;70.30;;;;;;10446767;28;20063;-54
2022/11/24 06:36:40;;;;;;;13.15;1.50;;;16.20;70.90;;;;;;10445743;28;20041;-55
2022/11/24 06:41:40;;;;;;;14.05;1.85;;;16.10;70.70;;;;;;10446414;28;20115;-53
2022/11/24 06:46:41;;;;;;;19.02;1.92;;;16.20;70.90;;;;;;10446971;28;20223;-51
2022/11/24 06:51:42;;;;;;;11.43;1.52;;;16.00;70.50;;;;;;10447260;28;20040;-54
2022/11/24 06:56:42;;;;;;;15.98;1.70;;;16.00;71.00;;;;;;10445265;28;20100;-50
2022/11/24 07:01:43;;;;;;;18.42;1.83;;;16.00;71.10;;;;;;10447150;28;20032;-53
2022/11/24 07:06:45;;;;;;;10.38;2.67;;;16.00;71.40;;;;;;10450529;28;20025;-50
2022/11/24 07:11:45;;;;;;;8.60;1.42;;;16.10;71.60;;;;;;10444720;28;20085;-54
2022/11/24 07:16:46;;;;;;;11.98;2.00;;;16.00;71.10;;;;;;10431381;28;20026;-55
2022/11/24 07:21:47;;;;;;;21.42;3.70;;;16.00;71.10;;;;;;10441641;28;20053;-54
2022/11/24 07:26:47;;;;;;;8.88;1.65;;;15.80;71.10;;;;;;10439261;28;20120;-55
2022/11/24 07:31:48;;;;;;;5.57;1.58;;;15.80;71.00;;;;;;10441823;28;20033;-54
2022/11/24 07:36:49;;;;;;;9.00;1.75;;;15.80;71.00;;;;;;10441779;28;20060;-56
2022/11/24 07:41:50;;;;;;;7.03;2.00;;;15.70;70.90;;;;;;10442389;28;20079;-55
2022/11/24 07:46:51;;;;;;;13.70;4.43;;;15.60;70.80;;;;;;10433259;28;20017;-52
2022/11/24 07:51:52;;;;;;;6.65;1.73;;;15.60;71.10;;;;;;10456793;28;20057;-55
2022/11/24 07:56:53;;;;;;;8.43;1.55;;;15.70;70.80;;;;;;10439347;28;20017;-56
2022/11/24 08:01:53;;;;;;;10.30;1.83;;;15.80;70.20;;;;;;10461295;28;20051;-55
2022/11/24 08:06:54;;;;;;;7.50;1.92;;;15.80;69.90;;;;;;10462922;28;20053;-56
2022/11/24 08:11:54;;;;;;;6.32;1.00;;;15.90;70.00;;;;;;10450572;28;20060;-56
2022/11/24 08:16:56;;;;;;;6.22;1.55;;;15.80;70.00;;;;;;10440964;28;20072;-56
2022/11/24 08:21:57;;;;;;;5.65;1.17;;;15.80;70.20;;;;;;10451943;28;20330;-55
2022/11/24 08:26:58;;;;;;;7.35;1.10;;;15.80;69.80;;;;;;10451523;28;20108;-55
2022/11/24 08:31:59;;;;;;;7.30;1.40;;;15.90;69.60;;;;;;10450527;28;20620;-56
2022/11/24 08:36:59;;;;;;;5.00;0.90;;;15.90;69.60;;;;;;10452348;28;20064;-56
2022/11/24 08:42:00;;;;;;;4.85;1.20;;;15.90;69.50;;;;;;10450085;28;20051;-54
2022/11/24 08:47:00;;;;;;;2.40;0.90;;;16.00;69.10;;;;;;10450313;28;20032;-55
2022/11/24 08:52:01;;;;;;;4.82;1.20;;;16.00;69.00;;;;;;10450364;28;20043;-56
2022/11/24 08:57:02;;;;;;;1.92;0.80;;;15.90;69.10;;;;;;10450020;28;20048;-55
2022/11/24 09:02:02;;;;;;;3.85;1.23;;;15.90;69.30;;;;;;10450113;28;20388;-56
2022/11/24 09:07:04;;;;;;;3.78;0.90;;;15.90;69.50;;;;;;10449770;28;20460;-56
2022/11/24 09:12:05;;;;;;;5.40;1.70;;;15.80;69.60;;;;;;10448653;28;20022;-55
2022/11/24 09:17:05;;;;;;;6.18;1.73;;;15.80;69.70;;;;;;10450691;28;20025;-55
2022/11/24 09:22:06;;;;;;;3.60;1.08;;;15.70;69.80;;;;;;10449008;28;20096;-56
2022/11/24 09:27:07;;;;;;;2.15;1.38;;;15.80;69.80;;;;;;10450193;28;20127;-56
2022/11/24 09:32:07;;;;;;;3.33;0.80;;;15.90;69.20;;;;;;10450380;28;20061;-56
2022/11/24 09:37:08;;;;;;;3.40;0.93;;;16.00;69.10;;;;;;10448789;28;20076;-56
2022/11/24 09:42:50;;;;;;;2.40;1.10;;;16.00;69.10;;;;;;10449981;28;20060;-53
2022/11/24 09:48:16;;;;;;;6.60;1.00;;;15.90;69.30;;;;;;10449584;28;20025;-54
2022/11/24 09:53:38;;;;;;;2.03;0.98;;;15.90;69.40;;;;;;10447298;28;20021;-55
2022/11/24 09:58:51;;;;;;;4.05;1.35;;;15.80;70.00;;;;;;10431564;28;20057;-54
2022/11/24 10:03:53;;;;;;;2.08;0.80;;;15.80;70.10;;;;;;10448077;28;20016;-53
2022/11/24 10:09:23;;;;;;;4.47;1.20;;;15.80;70.50;;;;;;10447139;28;20028;-55
2022/11/24 10:14:54;;;;;;;2.47;1.10;;;15.80;70.90;;;;;;10446912;28;20021;-50
2022/11/24 10:20:00;;;;;;;;;;;15.70;70.80;;;;;;10448884;28;20094;-54
2022/11/24 10:25:14;;;;;;;3.10;0.63;;;15.70;70.90;;;;;;10447299;28;19901;-54
2022/11/24 10:30:22;;;;;;;1.63;0.95;;;15.70;71.00;;;;;;10446870;28;20750;-54
2022/11/24 10:35:44;;;;;;;2.35;1.02;;;15.80;71.10;;;;;;10446579;28;20433;-52
2022/11/24 10:41:04;;;;;;;2.30;0.95;;;15.80;71.20;;;;;;10447624;28;20017;-53
2022/11/24 10:46:15;;;;;;;;;;;15.80;71.30;;;;;;10446687;28;20051;-54
2022/11/24 10:51:45;;;;;;;2.25;0.60;;;15.80;71.50;;;;;;10447465;28;20572;-54
2022/11/24 10:56:49;;;;;;;2.25;0.70;;;15.70;71.40;;;;;;10445742;28;20040;-54
2022/11/24 11:01:51;;;;;;;3.35;0.90;;;15.70;71.30;;;;;;10444467;28;20024;-53
2022/11/24 11:07:14;;;;;;;3.45;1.50;;;15.80;71.50;;;;;;10444792;28;20063;-53
2022/11/24 11:12:28;;;;;;;4.40;1.70;;;15.80;71.20;;;;;;10442792;28;20033;-53
2022/11/24 11:17:37;;;;;;;4.15;0.90;;;15.80;71.20;;;;;;10437299;28;20017;-53
2022/11/24 11:22:38;;;;;;;3.35;0.73;;;15.90;71.40;;;;;;10444296;28;20664;-51
2022/11/24 11:27:40;;;;;;;2.08;1.77;;;15.90;71.90;;;;;;10445257;28;20032;-52
2022/11/24 11:32:59;;;;;;;4.78;0.90;;;15.90;71.00;;;;;;10443463;28;20095;-51
2022/11/24 11:38:05;;;;;;;2.20;0.60;;;15.90;71.20;;;;;;10447385;28;20579;-52
2022/11/24 11:43:24;;;;;;;3.90;1.00;;;15.90;71.20;;;;;;10453795;28;20021;-52
2022/11/24 11:48:34;;;;;;;3.67;0.98;;;16.00;71.00;;;;;;10452516;28;20025;-53
2022/11/24 11:53:53;;;;;;;2.17;0.73;;;16.00;71.00;;;;;;10451937;28;20033;-53
2022/11/24 11:59:32;;;;;;;2.47;1.20;;;16.10;70.90;;;;;;10453220;28;20026;-51
2022/11/24 12:05:00;;;;;;;2.45;0.80;;;16.10;70.70;;;;;;10452139;28;20101;-53
2022/11/24 12:10:44;;;;;;;3.42;1.35;;;16.10;70.70;;;;;;10451809;28;20543;-53
2022/11/24 12:15:51;;;;;;;1.90;0.80;;;16.10;70.70;;;;;;10453164;28;20009;-53
2022/11/24 12:21:22;;;;;;;1.13;0.57;;;16.20;70.70;;;;;;10451496;28;20388;-52
2022/11/24 12:26:49;;;;;;;2.53;0.90;;;16.20;70.60;;;;;;10452335;28;20028;-54
2022/11/24 12:32:37;;;;;;;1.65;0.85;;;16.10;70.70;;;;;;10450951;28;20033;-52
2022/11/24 12:38:37;;;;;;;3.67;0.88;;;16.10;70.80;;;;;;10445354;28;20075;-53
2022/11/24 12:43:40;;;;;;;1.27;0.60;;;16.00;70.80;;;;;;10352242;28;20018;-53
2022/11/24 12:49:22;;;;;;;5.47;1.23;;;16.00;71.00;;;;;;10422524;28;20040;-53
2022/11/24 12:54:25;;;;;;;2.10;0.68;;;15.90;71.00;;;;;;10451013;28;20112;-53
2022/11/24 12:59:52;;;;;;;1.42;0.60;;;15.90;71.10;;;;;;10451476;28;20017;-54
2022/11/24 13:05:28;;;;;;;2.15;0.80;;;15.80;71.20;;;;;;10449599;28;20071;-55
2022/11/24 13:10:38;;;;;;;1.30;0.60;;;15.80;71.30;;;;;;10449660;28;20021;-56
2022/11/24 13:15:54;;;;;;;3.72;0.77;;;15.70;71.30;;;;;;10448791;28;20032;-55
2022/11/24 13:20:55;;;;;;;1.80;0.90;;;15.70;71.30;;;;;;10447857;28;20116;-55
2022/11/24 13:26:43;;;;;;;2.05;0.73;;;15.70;71.40;;;;;;10448809;28;20037;-56
2022/11/24 13:31:43;;;;;;;2.40;0.88;;;15.70;71.40;;;;;;10449215;28;20598;-55
2022/11/24 13:36:53;;;;;;;2.80;0.70;;;15.60;71.40;;;;;;10448539;28;20045;-55
2022/11/24 13:41:54;;;;;;;1.50;0.63;;;15.60;71.40;;;;;;10448745;28;20025;-53
2022/11/24 13:47:21;;;;;;;2.35;0.90;;;15.60;71.50;;;;;;10449757;28;20033;-55
2022/11/24 13:52:46;;;;;;;2.72;1.20;;;15.60;71.50;;;;;;10446708;28;20488;-54
2022/11/24 13:57:54;;;;;;;2.30;0.60;;;15.60;71.50;;;;;;10451950;28;20040;-53
2022/11/24 14:03:02;;;;;;;1.70;0.90;;;15.60;71.60;;;;;;10448753;28;20108;-54
2022/11/24 14:08:06;;;;;;;1.88;0.75;;;15.50;71.60;;;;;;10447685;28;20074;-55
2022/11/24 14:13:25;;;;;;;3.22;1.42;;;15.50;71.60;;;;;;10446748;28;20119;-55
2022/11/24 14:18:27;;;;;;;2.90;1.10;;;15.50;71.60;;;;;;10446892;28;20049;-55
2022/11/24 14:23:30;;;;;;;2.85;0.80;;;15.50;71.60;;;;;;10447463;28;20017;-54
2022/11/24 14:28:31;;;;;;;2.00;0.88;;;15.50;71.60;;;;;;10447835;28;20055;-55
2022/11/24 14:33:32;;;;;;;1.85;0.60;;;15.50;71.60;;;;;;10447745;28;20052;-54
2022/11/24 14:38:33;;;;;;;1.05;0.45;;;15.40;71.60;;;;;;10446000;28;20056;-55
2022/11/24 14:43:33;;;;;;;0.90;0.50;;;15.50;71.50;;;;;;10447397;28;20033;-54
2022/11/24 14:48:48;;;;;;;1.70;0.90;;;15.60;71.20;;;;;;10447412;28;20375;-55
2022/11/24 14:53:57;;;;;;;3.38;2.75;;;15.60;71.10;;;;;;10445489;28;20025;-54
2022/11/24 14:58:58;;;;;;;2.00;0.70;;;15.60;71.10;;;;;;10447229;28;20017;-53
2022/11/24 15:04:20;;;;;;;6.78;1.33;;;15.60;71.00;;;;;;10444814;28;20286;-54
2022/11/24 15:09:33;;;;;;;2.28;1.08;;;15.60;71.00;;;;;;10446675;28;20064;-55
2022/11/24 15:14:50;;;;;;;1.10;0.50;;;15.60;71.10;;;;;;10446720;28;20433;-54
2022/11/24 15:19:58;;;;;;;1.50;0.52;;;15.60;70.80;;;;;;10429112;28;20025;-56
2022/11/24 15:24:59;;;;;;;1.73;0.70;;;15.70;71.20;;;;;;10446596;28;20430;-55
2022/11/24 15:29:59;;;;;;;1.15;0.60;;;15.70;70.60;;;;;;10444995;28;20033;-55
2022/11/24 15:35:00;;;;;;;2.40;0.60;;;15.70;70.70;;;;;;10444086;28;20076;-55
2022/11/24 15:40:01;;;;;;;1.75;1.00;;;15.70;70.60;;;;;;10446503;28;20517;-54
2022/11/24 15:45:01;;;;;;;4.18;2.25;;;15.70;70.70;;;;;;10445929;28;20101;-56
2022/11/24 15:50:02;;;;;;;0.80;0.60;;;15.60;70.80;;;;;;10445997;28;20387;-55
2022/11/24 15:55:03;;;;;;;1.42;0.60;;;15.60;70.80;;;;;;10444815;28;20021;-55
2022/11/24 16:00:05;;;;;;;3.42;1.13;;;15.80;70.40;;;;;;10444078;28;20086;-54
2022/11/24 16:05:07;;;;;;;1.70;0.80;;;15.80;69.90;;;;;;10444462;28;20128;-55
2022/11/24 16:10:25;;;;;;;1.63;0.70;;;15.80;69.90;;;;;;10445518;28;20130;-55
2022/11/24 16:15:26;;;;;;;1.50;0.60;;;15.80;70.00;;;;;;10444181;28;20028;-54
2022/11/24 16:20:26;;;;;;;2.03;0.90;;;15.80;70.20;;;;;;10445531;28;20092;-58
2022/11/24 16:25:27;;;;;;;1.55;0.70;;;15.70;70.30;;;;;;10447367;28;20364;-52
2022/11/24 16:30:28;;;;;;;2.65;0.82;;;15.60;70.40;;;;;;10449622;28;20428;-54
2022/11/24 16:35:28;;;;;;;1.67;0.60;;;15.70;70.80;;;;;;10451779;28;20080;-55
2022/11/24 16:40:29;;;;;;;5.13;1.20;;;15.90;69.90;;;;;;10450176;28;20103;-54
2022/11/24 16:45:31;;;;;;;3.50;1.27;;;16.20;69.50;;;;;;10451333;28;20057;-53
2022/11/24 16:50:31;;;;;;;3.45;1.10;;;16.40;69.10;;;;;;10447914;28;20547;-54
2022/11/24 16:55:32;;;;;;;2.67;1.10;;;16.40;69.00;;;;;;10447342;28;20111;-54
2022/11/24 17:00:33;;;;;;;6.28;2.45;;;16.40;68.90;;;;;;10448064;28;20108;-55
2022/11/24 17:05:33;;;;;;;55.38;24.45;;;16.50;68.90;;;;;;10451180;28;20526;-56
2022/11/24 17:10:38;;;;;;;14.00;8.65;;;16.40;72.50;;;;;;10447746;28;20051;-54
2022/11/24 17:15:38;;;;;;;20.25;7.72;;;16.40;71.90;;;;;;10448811;28;20032;-56
2022/11/24 17:20:39;;;;;;;16.83;7.03;;;16.40;73.30;;;;;;10446068;28;20035;-57
2022/11/24 17:25:40;;;;;;;18.35;6.13;;;16.50;80.70;;;;;;10449346;28;20060;-58
2022/11/24 17:30:40;;;;;;;14.32;5.05;;;16.40;74.70;;;;;;10450154;28;20060;-57
2022/11/24 17:35:41;;;;;;;15.93;4.15;;;16.40;72.90;;;;;;10447492;28;20076;-56
2022/11/24 17:40:47;;;;;;;12.68;4.25;;;16.30;71.70;;;;;;10449873;28;20074;-56
2022/11/24 17:45:57;;;;;;;16.00;4.63;;;16.20;71.50;;;;;;10449058;28;20033;-57
2022/11/24 17:51:08;;;;;;;16.85;3.63;;;16.20;71.20;;;;;;10446356;28;20039;-55
2022/11/24 17:56:19;;;;;;;14.35;4.07;;;16.20;71.40;;;;;;10445366;28;20029;-56
2022/11/24 18:01:20;;;;;;;12.55;3.75;;;16.30;71.50;;;;;;10446939;28;20566;-57
2022/11/24 18:06:24;;;;;;;14.85;3.90;;;16.10;71.50;;;;;;10446167;28;20639;-57
2022/11/24 18:11:30;;;;;;;9.70;2.88;;;15.90;71.50;;;;;;10446810;28;20040;-57
2022/11/24 18:16:33;;;;;;;11.82;3.03;;;15.70;71.60;;;;;;10446307;28;20060;-57
2022/11/24 18:21:33;;;;;;;7.32;3.05;;;15.70;70.30;;;;;;10447277;28;20476;-55
2022/11/24 18:26:34;;;;;;;11.80;2.88;;;15.90;69.20;;;;;;10446420;28;20046;-57
2022/11/24 18:31:35;;;;;;;7.00;2.55;;;16.10;68.40;;;;;;10445097;28;20044;-57
2022/11/24 18:36:36;;;;;;;6.80;2.80;;;16.20;67.80;;;;;;10446740;28;20037;-57
2022/11/24 18:41:38;;;;;;;10.88;2.80;;;16.10;67.70;;;;;;10446844;28;20118;-55
2022/11/24 18:46:39;;;;;;;11.48;2.83;;;16.00;67.70;;;;;;10446312;28;20035;-54
2022/11/24 18:51:39;;;;;;;8.02;2.35;;;15.90;68.30;;;;;;10445042;28;20346;-56
2022/11/24 18:56:40;;;;;;;8.93;3.80;;;16.00;67.40;;;;;;10444873;28;20048;-56
2022/11/24 19:01:41;;;;;;;8.52;2.55;;;16.10;67.00;;;;;;10445446;28;20028;-56
2022/11/24 19:06:41;;;;;;;6.65;2.53;;;16.00;66.90;;;;;;10446936;28;20104;-56
2022/11/24 19:11:45;;;;;;;9.45;3.53;;;16.20;66.30;;;;;;10446450;28;20044;-55
2022/11/24 19:16:46;;;;;;;11.40;2.97;;;16.30;65.80;;;;;;10437997;28;20021;-55
2022/11/24 19:21:47;;;;;;;9.52;2.40;;;16.40;65.40;;;;;;10445320;28;20028;-56
2022/11/24 19:26:50;;;;;;;8.18;2.97;;;16.40;65.10;;;;;;10440602;28;20075;-56
2022/11/24 19:31:53;;;;;;;10.55;2.50;;;16.40;64.80;;;;;;10444362;28;20072;-56
2022/11/24 19:36:53;;;;;;;9.00;2.88;;;16.40;64.70;;;;;;10445622;28;20052;-56
2022/11/24 19:41:54;;;;;;;11.07;2.03;;;16.40;64.70;;;;;;10445038;28;20063;-57
2022/11/24 19:46:54;;;;;;;11.57;2.85;;;16.40;64.20;;;;;;10443356;28;20124;-56
2022/11/24 19:51:55;;;;;;;10.13;2.83;;;16.40;64.50;;;;;;10441120;28;20138;-56
2022/11/24 19:56:56;;;;;;;7.38;1.92;;;16.50;64.50;;;;;;10444103;28;20048;-56
2022/11/24 20:01:56;;;;;;;8.45;2.47;;;16.50;64.60;;;;;;10451049;28;20112;-57
2022/11/24 20:06:57;;;;;;;7.28;2.75;;;16.40;65.00;;;;;;10449702;28;20079;-58
2022/11/24 20:11:58;;;;;;;7.75;3.88;;;16.30;65.50;;;;;;10451969;28;20117;-53
2022/11/24 20:16:58;;;;;;;6.82;2.20;;;16.20;65.70;;;;;;10434680;28;20653;-56
2022/11/24 20:21:59;;;;;;;5.13;2.00;;;16.20;65.90;;;;;;10451915;28;20105;-57
2022/11/24 20:27:00;;;;;;;7.70;2.20;;;16.10;66.10;;;;;;10450367;28;20108;-58
2022/11/24 20:32:00;;;;;;;6.97;2.60;;;16.00;66.30;;;;;;10450491;28;20029;-58
2022/11/24 20:37:01;;;;;;;6.35;2.17;;;16.00;66.50;;;;;;10482838;28;20057;-56
2022/11/24 20:42:02;;;;;;;6.55;2.13;;;15.90;66.60;;;;;;10446492;28;20549;-58
2022/11/24 20:47:05;;;;;;;7.05;2.40;;;15.90;66.70;;;;;;10447827;28;20036;-56
2022/11/24 20:52:05;;;;;;;6.40;2.35;;;15.80;66.70;;;;;;10451344;28;20460;-57
2022/11/24 20:57:06;;;;;;;4.75;2.47;;;15.80;67.00;;;;;;10450919;28;20124;-57
2022/11/24 21:02:09;;;;;;;5.43;2.00;;;15.70;66.90;;;;;;10483237;28;20422;-57
2022/11/24 21:07:12;;;;;;;5.95;2.00;;;15.70;66.70;;;;;;10448037;28;20033;-58
2022/11/24 21:12:13;;;;;;;5.70;2.30;;;15.80;66.70;;;;;;10447528;28;20021;-57
2022/11/24 21:17:13;;;;;;;5.30;2.10;;;15.80;66.30;;;;;;10447224;28;20021;-56
2022/11/24 21:22:14;;;;;;;7.68;2.42;;;15.90;66.30;;;;;;10447410;28;20064;-56
2022/11/24 21:27:15;;;;;;;4.55;1.83;;;15.80;66.30;;;;;;10448267;28;20686;-56
2022/11/24 21:32:15;;;;;;;4.90;2.22;;;15.90;66.10;;;;;;10450273;28;20029;-57
2022/11/24 21:37:17;;;;;;;5.28;1.75;;;16.00;65.70;;;;;;10449625;28;20068;-56
2022/11/24 21:42:17;;;;;;;6.68;2.20;;;16.00;65.80;;;;;;10450226;28;20110;-57
2022/11/24 21:47:18;;;;;;;5.85;1.88;;;16.00;65.80;;;;;;10449600;28;20598;-56
2022/11/24 21:52:19;;;;;;;6.05;2.33;;;16.10;65.50;;;;;;10447908;28;20021;-58
2022/11/24 21:57:21;;;;;;;3.95;1.33;;;16.10;65.30;;;;;;10447671;28;20029;-57
2022/11/24 22:02:22;;;;;;;5.45;2.35;;;16.10;65.30;;;;;;10448762;28;20578;-55
2022/11/24 22:07:23;;;;;;;5.55;2.05;;;16.10;65.50;;;;;;10430946;28;20029;-57
2022/11/24 22:12:24;;;;;;;4.63;1.83;;;16.00;65.70;;;;;;10448492;28;20048;-55
2022/11/24 22:17:24;;;;;;;5.60;2.00;;;15.90;65.80;;;;;;10447379;28;20017;-54
2022/11/24 22:22:25;;;;;;;3.75;1.55;;;15.90;66.00;;;;;;10445822;28;20043;-56
2022/11/24 22:27:26;;;;;;;3.85;1.80;;;15.80;66.20;;;;;;10447726;28;20651;-58
2022/11/24 22:32:27;;;;;;;4.50;1.73;;;15.80;66.30;;;;;;10451784;28;20111;-57
2022/11/24 22:37:27;;;;;;;5.80;2.00;;;15.80;66.10;;;;;;10447921;28;20095;-57
2022/11/24 22:42:28;;;;;;;7.85;2.05;;;16.00;66.30;;;;;;10447397;28;20025;-56
2022/11/24 22:47:28;;;;;;;5.93;2.08;;;16.00;65.50;;;;;;10447955;28;20417;-55
2022/11/24 22:52:29;;;;;;;4.38;1.83;;;16.00;65.40;;;;;;10445754;28;20060;-54
2022/11/24 22:57:30;;;;;;;6.95;1.65;;;16.10;65.40;;;;;;10445558;28;20122;-57
2022/11/24 23:02:30;;;;;;;4.65;2.22;;;16.10;65.30;;;;;;10445137;28;20505;-56
2022/11/24 23:07:31;;;;;;;4.00;1.73;;;16.10;65.40;;;;;;10445626;28;20100;-56
2022/11/24 23:12:32;;;;;;;4.38;1.35;;;16.00;65.60;;;;;;10445322;28;20127;-57
2022/11/24 23:17:32;;;;;;;6.60;2.20;;;16.00;65.80;;;;;;10446668;28;20100;-56
2022/11/24 23:22:33;;;;;;;4.88;1.88;;;15.90;66.00;;;;;;10478737;28;20059;-57
2022/11/24 23:27:34;;;;;;;3.90;2.13;;;15.90;66.00;;;;;;10445826;28;20056;-57
2022/11/24 23:32:34;;;;;;;5.28;1.80;;;16.00;65.60;;;;;;10454287;28;20527;-53
2022/11/24 23:37:35;;;;;;;4.43;1.65;;;16.00;65.50;;;;;;10453415;28;20128;-57
2022/11/24 23:42:36;;;;;;;5.00;1.75;;;16.00;65.70;;;;;;10453123;28;20196;-56
2022/11/24 23:47:36;;;;;;;3.63;1.63;;;15.90;65.90;;;;;;10454296;28;20068;-56
2022/11/24 23:52:37;;;;;;;4.55;1.45;;;15.80;66.00;;;;;;10443109;28;20781;-57
2022/11/24 23:57:38;;;;;;;4.20;1.67;;;15.90;65.80;;;;;;10453198;28;20154;-56
